Patton, CA (92369)

11:05 PM PDT on June 24, 2017 (GMT -0700)
Marshall | | Change Station
Active Advisory: Heat Advisory

Elev 1275 ft 34.15 °N, 117.27 °W | Updated 1 second ago

Clear
Clear
76.1 °F
Feels Like 78 °F
N
0.0
Wind Variable Wind from SW

Today
High -- | Low -- °F
--% Chance of Precip.
Yesterday
High -- | Low -- °F
Precip. -- in
Pressure 29.89 in
Visibility 10.0 miles
Clouds Clear
Heat Index 78 °F
Dew Point 64 °F
Humidity 65%
Rainfall in
Snow Depth Not available.
5:38 AM 8:04 PM
New Moon, 2% visible
METAR KSBD 250558Z AUTO 27004KT 10SM CLR 25/14 A2989 RMK AO2 T02530143
Pressure 29.89 in
Visibility 10.0 miles
Clouds Clear
Heat Index 78 °F
Dew Point 64 °F
Humidity 65%
Rainfall in
Snow Depth Not available.
5:38 AM 8:04 PM
New Moon, 2% visible
METAR KSBD 250558Z AUTO 27004KT 10SM CLR 25/14 A2989 RMK AO2 T02530143

Get Your Daily Forecast Email!

Thanks for signing up!

Be on the lookout for a verification email in your inbox.

You'll start receiving severe weather alerts in your inbox..

×

10-Day Weather Forecast

Almanac

Astronomy

Jun. 24, 2017 Rise Set
Actual Time
Civil Twilight
Nautical Twilight
Astronomical Twilight
Moon
Length of Visible Light
Length of Day
Tomorrow will be .
, % of the Moon is Illuminated

Today's Extremes

State Highs State Lows

Community

WunderPhotos

Category 6

Welcome to Category 6. This is the collective home for Weather Underground's featured writeups by Dr. Jeff Masters (right), Bob Henson (left), Chris Burt, and other regular contributors.

Nearby

Air Quality

  Air Quality AQ Index Pollutant
Not available.

Snow Depth

Station Depth Elevation

Earthquake Activity

City Distance Mag. Time & Date
Minimum magnitude displayed is 2.5.

Coastal Water Temperatures

Place Temperature

Stations

Nearby Weather Stations

Station Location Temp. Windchill Dew Point Humidity Wind Precip. Elev Updated Type
                   

Watches & Warnings

Heat Advisory
Issued: 9:35 PM PDT Jun. 24, 2017 – National Weather Service

... Heat advisory remains in effect from 10 am to 9 PM PDT
Sunday...

* high temperatures... 100 to 106.

* Location... the inland slopes of the san Ana mountains eastward
to the foothills of the Riverside County mountains.

* Impacts... those working or spending time outdoors, the
elderly, children, and those unaccustomed to excessive heat
will be most susceptible to dangerous heat illness.

Precautionary/preparedness actions...

Take extra precautions... if you work or spend time outside. When
possible... reschedule strenuous activities to early morning or
evening. Know the signs and symptoms of heat exhaustion and heat
stroke. Wear light weight and loose fitting clothing when
possible and drink plenty of water.